Quetta Weather



Quetta's Current Weather

Temprature 23.16o clear sky

clear sky

Rain: 0 %

Min Temprature23.16o
Max Temprature23.16o
Humidity7
Wind Speed1.64 m/h
Sun Rise05:33:50
Sun Set19:24:02
Current Time: 24-May-2022 08:54:31
Lat/Lon: 30.199, 67.0097




Quetta's Geo Location



Quetta's Weather Forecast

Time Overall Temp Min Temp Max Temp Humidity Wind Speed Rain
24-May-2022 (Tue)
11:00:00 clear sky 23.010 23.010 26.130 7 2.44 m/h 0 %
14:00:00 clear sky 26.640 26.640 29.230 5 3.2 m/h 0 %
17:00:00 clear sky 29.570 29.570 29.570 4 3.45 m/h 0 %
20:00:00 clear sky 23.940 23.940 23.940 13 1.5 m/h 0 %
23:00:00 clear sky 21.470 21.470 21.470 28 2.54 m/h 0 %
25-May-2022 (Wed)
02:00:00 clear sky 19.810 19.810 19.810 31 2.18 m/h 0 %
05:00:00 clear sky 18.280 18.280 18.280 31 1.64 m/h 0 %
08:00:00 clear sky 24.690 24.690 24.690 16 1.28 m/h 0 %
11:00:00 clear sky 29.470 29.470 29.470 7 2.89 m/h 0 %
14:00:00 clear sky 31.920 31.920 31.920 7 4.3 m/h 0 %
17:00:00 clear sky 32.420 32.420 32.420 5 4.64 m/h 0 %
20:00:00 clear sky 27.550 27.550 27.550 8 2.6 m/h 0 %
23:00:00 clear sky 24.540 24.540 24.540 10 1.6 m/h 0 %
26-May-2022 (Thu)
02:00:00 clear sky 22.970 22.970 22.970 11 1.51 m/h 0 %
05:00:00 clear sky 21.200 21.200 21.200 12 1.23 m/h 0 %
08:00:00 clear sky 28.020 28.020 28.020 7 0.62 m/h 0 %
11:00:00 clear sky 31.770 31.770 31.770 7 3.21 m/h 0 %
14:00:00 clear sky 33.760 33.760 33.760 6 2.71 m/h 0 %
17:00:00 clear sky 34.160 34.160 34.160 6 7.37 m/h 0 %
20:00:00 clear sky 29.690 29.690 29.690 9 5.13 m/h 0 %
23:00:00 clear sky 25.700 25.700 25.700 14 0.78 m/h 0 %
27-May-2022 (Fri)
02:00:00 clear sky 23.470 23.470 23.470 14 1.19 m/h 0 %
05:00:00 clear sky 21.980 21.980 21.980 15 1.97 m/h 0 %
08:00:00 clear sky 27.070 27.070 27.070 10 2.83 m/h 0 %
11:00:00 clear sky 30.300 30.300 30.300 7 5.94 m/h 0 %
14:00:00 clear sky 32.180 32.180 32.180 6 9.36 m/h 0 %
17:00:00 clear sky 31.630 31.630 31.630 7 12.99 m/h 0 %
20:00:00 clear sky 27.290 27.290 27.290 7 11.31 m/h 0 %
23:00:00 clear sky 24.130 24.130 24.130 8 7.59 m/h 0 %
28-May-2022 (Sat)
02:00:00 clear sky 19.880 19.880 19.880 12 2.16 m/h 0 %
05:00:00 clear sky 17.990 17.990 17.990 14 2.56 m/h 0 %
08:00:00 clear sky 22.430 22.430 22.430 14 4.08 m/h 0 %
11:00:00 clear sky 26.490 26.490 26.490 9 6.26 m/h 0 %
14:00:00 clear sky 30.390 30.390 30.390 5 12.14 m/h 0 %
17:00:00 clear sky 29.300 29.300 29.300 6 11.61 m/h 0 %
20:00:00 clear sky 25.090 25.090 25.090 6 7.73 m/h 0 %
23:00:00 clear sky 20.260 20.260 20.260 8 1.93 m/h 0 %
29-May-2022 (Sun)
02:00:00 clear sky 18.370 18.370 18.370 11 1.54 m/h 0 %
05:00:00 clear sky 16.680 16.680 16.680 16 2.74 m/h 0 %
08:00:00 clear sky 20.560 20.560 20.560 14 3.68 m/h 0 %

Famous Cities (61)